Time;durP1;ratioP1;P1;durP2;ratioP2;P2;SDS_P1;SDS_P2;PMS_P1;PMS_P2;Temp;Humidity;BMP_temperature;BMP_pressure;BME280_temperature;BME280_humidity;BME280_pressure;Samples;Min_cycle;Max_cycle;Signal;HPM_P1;HPM_P2
2020/12/15 00:00:20;;;;;;;45.30;24.25;;;;;;;-0.27;84.32;100734.32;1776121;80;22132;-69
2020/12/15 00:02:48;;;;;;;43.25;20.90;;;;;;;-0.24;84.33;100742.45;1761945;81;21077;-69
2020/12/15 00:05:17;;;;;;;47.55;24.82;;;;;;;-0.25;84.32;100742.06;1761854;81;21162;-69
2020/12/15 00:07:45;;;;;;;47.55;23.40;;;;;;;-0.25;84.31;100746.80;1750105;81;21140;-69
2020/12/15 00:10:15;;;;;;;53.05;26.07;;;;;;;-0.23;84.31;100741.56;1759756;80;21165;-68
2020/12/15 00:12:43;;;;;;;45.45;22.90;;;;;;;-0.23;84.30;100734.63;1758585;80;22044;-69
2020/12/15 00:15:10;;;;;;;50.50;25.17;;;;;;;-0.22;84.32;100736.77;1756160;80;21073;-68
2020/12/15 00:17:38;;;;;;;52.33;26.05;;;;;;;-0.21;84.33;100739.31;1784562;80;21109;-68
2020/12/15 00:20:07;;;;;;;45.75;22.25;;;;;;;-0.22;84.32;100738.91;1769250;80;21428;-69
2020/12/15 00:22:36;;;;;;;50.92;25.55;;;;;;;-0.20;84.31;100744.05;1758908;80;21104;-69
2020/12/15 00:25:04;;;;;;;52.70;26.93;;;;;;;-0.24;84.32;100744.61;1756663;80;22071;-68
2020/12/15 00:27:32;;;;;;;50.28;23.98;;;;;;;-0.26;84.32;100741.21;1782612;80;21054;-68
2020/12/15 00:30:01;;;;;;;42.88;21.87;;;;;;;-0.26;84.33;100743.80;1756814;80;21081;-68
2020/12/15 00:32:29;;;;;;;50.40;23.98;;;;;;;-0.26;84.33;100741.21;1764655;80;21496;-68
2020/12/15 00:34:57;;;;;;;50.12;26.15;;;;;;;-0.28;84.35;100743.45;1756653;80;21105;-68
2020/12/15 00:37:25;;;;;;;52.90;25.62;;;;;;;-0.29;84.34;100738.68;1773331;80;22820;-68
2020/12/15 00:39:53;;;;;;;46.35;23.12;;;;;;;-0.27;84.35;100741.26;1781276;79;21073;-68
2020/12/15 00:42:21;;;;;;;51.85;25.75;;;;;;;-0.25;84.37;100740.31;1767406;80;21053;-68
2020/12/15 00:44:48;;;;;;;36.42;19.82;;;;;;;-0.23;84.39;100735.92;1782366;80;21125;-68
2020/12/15 00:47:16;;;;;;;43.85;23.57;;;;;;;-0.22;84.38;100731.13;1758121;80;21128;-68
2020/12/15 00:49:44;;;;;;;36.23;20.52;;;;;;;-0.26;84.37;100726.94;1775102;80;21894;-69
2020/12/15 00:52:13;;;;;;;46.02;24.55;;;;;;;-0.29;84.39;100724.41;1764144;80;21089;-68
2020/12/15 00:54:41;;;;;;;48.13;24.60;;;;;;;-0.29;84.41;100725.70;1769213;80;21148;-68
2020/12/15 00:57:09;;;;;;;44.90;21.52;;;;;;;-0.26;84.42;100728.23;1762405;80;21091;-68
2020/12/15 00:59:37;;;;;;;40.10;21.75;;;;;;;-0.26;84.42;100720.45;1773632;80;21116;-68
2020/12/15 01:02:06;;;;;;;41.68;21.82;;;;;;;-0.28;84.41;100720.95;1768981;79;22924;-70
2020/12/15 01:04:35;;;;;;;42.62;22.15;;;;;;;-0.30;84.42;100722.26;1762954;80;21168;-71
2020/12/15 01:07:03;;;;;;;34.58;18.35;;;;;;;-0.30;84.44;100719.66;1785185;79;20904;-70
2020/12/15 01:09:31;;;;;;;43.75;22.25;;;;;;;-0.27;84.45;100716.15;1786977;80;22675;-70
2020/12/15 01:12:02;;;;;;;36.08;19.48;;;;;;;-0.26;84.45;100715.70;1787099;79;21003;-71
2020/12/15 01:14:32;;;;;;;40.92;22.05;;;;;;;-0.24;84.47;100707.41;1787066;80;21941;-71
2020/12/15 01:17:19;;;;;;;42.03;22.98;;;;;;;-0.23;84.48;100710.41;1786849;79;21083;-70
2020/12/15 01:19:49;;;;;;;29.77;17.05;;;;;;;-0.21;84.45;100712.05;1784871;80;21437;-70
2020/12/15 01:22:38;;;;;;;39.98;20.62;;;;;;;-0.20;84.47;100705.97;1783951;80;21365;-72
2020/12/15 01:25:09;;;;;;;43.58;23.27;;;;;;;-0.21;84.46;100712.50;1762456;80;21105;-72
2020/12/15 01:27:43;;;;;;;40.45;21.50;;;;;;;-0.22;84.45;100711.66;1785831;80;22182;-70
2020/12/15 01:30:16;;;;;;;37.13;21.10;;;;;;;-0.20;84.47;100710.31;1787782;78;21554;-68
2020/12/15 01:32:53;;;;;;;36.45;20.68;;;;;;;-0.16;84.46;100710.64;1878442;76;29060;-69
2020/12/15 01:35:23;;;;;;;37.13;20.60;;;;;;;-0.19;84.47;100718.50;1828101;77;21075;-69
2020/12/15 01:37:53;;;;;;;36.75;20.45;;;;;;;-0.19;84.46;100711.59;1841955;77;22055;-72
2020/12/15 01:40:23;;;;;;;38.75;21.42;;;;;;;-0.16;84.46;100714.08;1860333;77;21066;-71
2020/12/15 01:42:52;;;;;;;36.63;20.62;;;;;;;-0.17;84.45;100714.98;1812709;78;21477;-69
2020/12/15 01:45:21;;;;;;;38.73;21.33;;;;;;;-0.16;84.44;100715.83;1827180;78;22181;-71
2020/12/15 01:47:49;;;;;;;38.58;21.82;;;;;;;-0.17;84.43;100711.09;1838158;77;21541;-69
2020/12/15 01:50:18;;;;;;;43.42;22.87;;;;;;;-0.16;84.43;100710.64;1832017;77;22117;-69
2020/12/15 01:52:46;;;;;;;40.23;21.87;;;;;;;-0.17;84.41;100713.69;1856985;77;21119;-69
2020/12/15 01:55:15;;;;;;;38.17;20.95;;;;;;;-0.19;84.40;100707.70;1827557;77;21094;-69
2020/12/15 01:57:51;;;;;;;35.35;20.32;;;;;;;-0.19;84.41;100720.67;1784591;80;21386;-69
2020/12/15 02:00:35;;;;;;;42.15;22.75;;;;;;;-0.18;84.42;100714.58;1864685;76;29093;-69
2020/12/15 02:03:07;;;;;;;34.65;18.12;;;;;;;-0.24;84.42;100720.39;1832772;78;21546;-69
2020/12/15 02:05:54;;;;;;;33.08;19.27;;;;;;;-0.24;84.43;100726.44;1820057;78;22873;-70
2020/12/15 02:08:21;;;;;;;37.08;18.80;;;;;;;-0.27;84.39;100726.53;1808088;79;22387;-69
2020/12/15 02:10:50;;;;;;;30.77;18.30;;;;;;;-0.28;84.41;100725.28;1807606;79;21120;-69
2020/12/15 02:13:22;;;;;;;38.13;21.27;;;;;;;-0.31;84.39;100719.27;1806694;79;21127;-69
2020/12/15 02:15:49;;;;;;;43.17;22.85;;;;;;;-0.31;84.41;100722.30;1807450;79;21115;-69
2020/12/15 02:18:17;;;;;;;39.30;21.25;;;;;;;-0.30;84.40;100726.60;1808440;79;22100;-69
2020/12/15 02:20:47;;;;;;;39.98;21.45;;;;;;;-0.28;84.45;100727.88;1806570;79;21182;-69
2020/12/15 02:23:31;;;;;;;37.35;20.80;;;;;;;-0.22;84.44;100723.78;1882439;75;29043;-69
2020/12/15 02:26:07;;;;;;;39.92;22.67;;;;;;;-0.26;84.43;100724.34;1832580;77;21057;-69
2020/12/15 02:28:35;;;;;;;36.15;19.67;;;;;;;-0.27;84.43;100730.42;1816506;79;22128;-69
2020/12/15 02:31:03;;;;;;;34.95;19.25;;;;;;;-0.26;84.43;100728.68;1827760;77;21157;-69
2020/12/15 02:33:35;;;;;;;71.40;39.03;;;;;;;-0.27;84.42;100733.02;1819240;77;21115;-69
2020/12/15 02:36:03;;;;;;;60.98;31.62;;;;;;;-0.31;84.44;100733.54;1839282;77;21149;-69
2020/12/15 02:38:31;;;;;;;30.97;18.73;;;;;;;-0.34;84.43;100732.34;1849822;77;21515;-69
2020/12/15 02:40:59;;;;;;;38.33;18.90;;;;;;;-0.34;84.46;100734.09;1834202;77;22054;-69
2020/12/15 02:43:49;;;;;;;83.03;41.33;;;;;;;-0.30;84.48;100735.69;1846515;76;29023;-69
2020/12/15 02:46:19;;;;;;;54.18;28.25;;;;;;;-0.35;84.47;100737.58;1829223;78;21040;-69
2020/12/15 02:48:47;;;;;;;114.72;60.30;;;;;;;-0.37;84.49;100736.33;1839362;77;21923;-69
2020/12/15 02:51:16;;;;;;;56.65;31.02;;;;;;;-0.35;84.50;100738.87;1839059;78;21107;-69
2020/12/15 02:54:05;;;;;;;49.13;26.37;;;;;;;-0.30;84.54;100733.09;1866922;76;29445;-69
2020/12/15 02:56:33;;;;;;;46.88;24.85;;;;;;;-0.32;84.53;100739.63;1829919;77;21067;-69
2020/12/15 02:59:03;;;;;;;36.75;21.52;;;;;;;-0.30;84.54;100738.28;1795832;78;21989;-69
2020/12/15 03:01:30;;;;;;;37.67;22.32;;;;;;;-0.31;84.55;100740.48;1827380;77;22459;-69
2020/12/15 03:03:59;;;;;;;32.15;18.55;;;;;;;-0.31;84.55;100750.86;1827195;78;21514;-69
2020/12/15 03:06:43;;;;;;;40.65;22.00;;;;;;;-0.25;84.60;100748.09;1852779;76;29068;-69
2020/12/15 03:09:12;;;;;;;33.73;19.48;;;;;;;-0.28;84.55;100748.20;1840540;78;21047;-69
2020/12/15 03:11:41;;;;;;;34.90;19.75;;;;;;;-0.26;84.57;100744.25;1830521;77;22126;-69
2020/12/15 03:14:11;;;;;;;37.70;21.73;;;;;;;-0.27;84.56;100747.30;1829505;78;21059;-69
2020/12/15 03:16:40;;;;;;;36.17;21.27;;;;;;;-0.28;84.57;100746.90;1834090;77;21478;-69
2020/12/15 03:19:08;;;;;;;43.98;23.57;;;;;;;-0.27;84.56;100746.45;1844592;77;22053;-69
2020/12/15 03:21:36;;;;;;;63.70;34.85;;;;;;;-0.26;84.57;100750.75;1837226;77;21123;-69
2020/12/15 03:24:05;;;;;;;46.20;26.48;;;;;;;-0.28;84.57;100745.60;1828642;77;21456;-70
2020/12/15 03:26:33;;;;;;;95.70;57.03;;;;;;;-0.28;84.55;100746.05;1803409;79;21066;-69
2020/12/15 03:29:02;;;;;;;93.95;54.88;;;;;;;-0.28;84.56;100749.94;1808443;79;21044;-69
2020/12/15 03:31:31;;;;;;;46.92;28.25;;;;;;;-0.28;84.56;100741.70;1808023;79;22353;-69
2020/12/15 03:33:59;;;;;;;45.08;25.23;;;;;;;-0.26;84.55;100739.91;1810199;79;21057;-69
2020/12/15 03:36:27;;;;;;;50.23;28.83;;;;;;;-0.26;84.55;100749.45;1805303;79;22123;-69
2020/12/15 03:38:55;;;;;;;43.38;23.92;;;;;;;-0.26;84.57;100746.85;1807011;79;21402;-70
2020/12/15 03:41:25;;;;;;;41.77;23.45;;;;;;;-0.27;84.54;100743.41;1808820;79;21164;-69
2020/12/15 03:44:09;;;;;;;84.65;43.83;;;;;;;-0.20;84.56;100747.95;1873579;75;29089;-69
2020/12/15 03:46:38;;;;;;;239.68;112.22;;;;;;;-0.22;84.56;100756.23;1838117;78;21044;-69
2020/12/15 03:49:09;;;;;;;67.17;33.30;;;;;;;-0.22;84.54;100754.48;1823785;78;22227;-69
2020/12/15 03:51:39;;;;;;;45.40;25.30;;;;;;;-0.23;84.51;100751.50;1818373;78;21095;-71
2020/12/15 03:54:26;;;;;;;67.20;33.60;;;;;;;-0.23;84.52;100755.39;1837465;77;21051;-70
2020/12/15 03:57:12;;;;;;;103.67;50.50;;;;;;;-0.22;84.52;100753.19;1823529;78;21120;-70
2020/12/15 03:59:45;;;;;;;118.28;59.70;;;;;;;-0.22;84.53;100754.94;1806858;78;21079;-70
2020/12/15 04:02:13;;;;;;;59.70;32.25;;;;;;;-0.21;84.52;100752.30;1808951;78;22102;-70
2020/12/15 04:04:42;;;;;;;61.77;38.28;;;;;;;-0.22;84.53;100759.68;1808380;78;21126;-70
2020/12/15 04:07:10;;;;;;;54.03;31.80;;;;;;;-0.22;84.53;100760.13;1808427;78;21040;-70
2020/12/15 04:09:40;;;;;;;36.73;20.27;;;;;;;-0.24;84.51;100760.62;1808390;78;21076;-70
2020/12/15 04:12:08;;;;;;;50.12;27.17;;;;;;;-0.24;84.51;100766.67;1808436;79;21072;-69
2020/12/15 04:14:35;;;;;;;45.67;25.05;;;;;;;-0.22;84.49;100772.66;1806828;79;22061;-70
2020/12/15 04:17:04;;;;;;;46.42;25.57;;;;;;;-0.18;84.52;100775.59;1807926;79;21063;-70
2020/12/15 04:19:32;;;;;;;62.85;42.00;;;;;;;-0.16;84.51;100771.20;1808338;79;21135;-70
2020/12/15 04:22:00;;;;;;;60.65;36.20;;;;;;;-0.15;84.50;100772.89;1808387;79;21050;-69
2020/12/15 04:24:30;;;;;;;49.35;27.55;;;;;;;-0.16;84.46;100779.44;1806133;79;21064;-69
2020/12/15 04:26:59;;;;;;;46.42;25.97;;;;;;;-0.17;84.45;100781.62;1808358;78;22119;-69
2020/12/15 04:29:27;;;;;;;44.23;24.55;;;;;;;-0.20;84.46;100779.10;1808237;78;21067;-69
2020/12/15 04:31:57;;;;;;;45.35;24.35;;;;;;;-0.20;84.47;100786.44;1806676;78;21096;-69
2020/12/15 04:34:25;;;;;;;39.73;21.45;;;;;;;-0.22;84.45;100786.94;1806703;79;21108;-69
2020/12/15 04:36:53;;;;;;;45.23;25.37;;;;;;;-0.23;84.45;100793.03;1801561;79;21519;-69
2020/12/15 04:39:23;;;;;;;36.60;20.82;;;;;;;-0.24;84.46;100787.44;1807648;79;21887;-68
2020/12/15 04:41:51;;;;;;;43.02;24.27;;;;;;;-0.21;84.47;100799.02;1804464;79;21159;-68
2020/12/15 04:44:19;;;;;;;34.63;19.87;;;;;;;-0.21;84.46;100792.53;1802367;78;21495;-70
2020/12/15 04:47:20;;;;;;;42.00;22.93;;;;;;;-0.22;84.45;100797.32;1796573;79;21072;-69
2020/12/15 04:50:07;;;;;;;44.15;24.47;;;;;;;-0.21;84.46;100803.36;1808328;79;21111;-69
2020/12/15 04:53:00;;;;;;;38.23;21.35;;;;;;;-0.16;84.46;100795.02;1879126;74;29471;-75
2020/12/15 04:55:45;;;;;;;43.33;23.73;;;;;;;-0.17;84.45;100806.30;1843249;77;21099;-72
2020/12/15 04:58:14;;;;;;;40.60;23.27;;;;;;;-0.20;84.42;100808.50;1825987;77;21881;-72
2020/12/15 05:00:42;;;;;;;40.12;21.93;;;;;;;-0.20;84.44;100810.25;1782818;77;21092;-72
2020/12/15 05:03:14;;;;;;;43.45;23.42;;;;;;;-0.18;84.45;100813.68;1817182;77;21103;-72
2020/12/15 05:05:42;;;;;;;46.73;24.52;;;;;;;-0.18;84.44;100811.09;1828747;77;21107;-71
2020/12/15 05:08:10;;;;;;;36.00;20.37;;;;;;;-0.17;84.43;100813.63;1756304;80;21056;-72
2020/12/15 05:10:40;;;;;;;44.60;24.47;;;;;;;-0.14;84.43;100812.69;1715868;78;21862;-71
2020/12/15 05:13:40;;;;;;;41.02;23.90;;;;;;;-0.11;84.43;100800.45;1878634;76;28953;-75
2020/12/15 05:16:09;;;;;;;41.13;23.10;;;;;;;-0.14;84.41;100811.39;1825716;77;21081;-73
2020/12/15 05:18:49;;;;;;;43.28;24.77;;;;;;;-0.13;84.42;100816.98;1838562;77;22085;-73
2020/12/15 05:21:19;;;;;;;41.40;23.75;;;;;;;-0.15;84.39;100822.67;1830149;77;21571;-75
2020/12/15 05:23:58;;;;;;;39.45;22.00;;;;;;;-0.10;84.42;100826.82;1868483;76;29219;-75
2020/12/15 05:26:28;;;;;;;36.50;20.75;;;;;;;-0.14;84.40;100835.61;1851639;77;21054;-76
2020/12/15 05:29:05;;;;;;;39.40;23.75;;;;;;;-0.12;84.41;100842.90;1830674;77;21882;-72
2020/12/15 05:31:41;;;;;;;30.55;17.35;;;;;;;-0.15;84.38;100853.38;1785105;80;21148;-71
2020/12/15 05:34:27;;;;;;;39.08;23.27;;;;;;;-0.11;84.41;100849.79;1791268;77;29096;-73
2020/12/15 05:37:15;;;;;;;45.92;25.10;;;;;;;-0.16;84.39;100856.02;1686332;83;21200;-77
2020/12/15 05:40:01;;;;;;;35.68;20.97;;;;;;;-0.17;84.39;100851.73;1867746;76;28989;-79
2020/12/15 05:42:31;;;;;;;44.50;25.40;;;;;;;-0.21;84.37;100854.83;1831917;77;21046;-75
2020/12/15 05:44:59;;;;;;;47.15;25.48;;;;;;;-0.19;84.39;100852.19;1787049;77;22939;-75
2020/12/15 05:47:27;;;;;;;44.03;25.08;;;;;;;-0.17;84.39;100859.06;1812073;77;21074;-75
2020/12/15 05:49:58;;;;;;;42.38;23.90;;;;;;;-0.18;84.37;100860.41;1849156;77;21089;-75
2020/12/15 05:52:28;;;;;;;43.70;24.75;;;;;;;-0.17;84.37;100855.17;1847907;77;21089;-76
2020/12/15 05:55:12;;;;;;;71.47;37.28;;;;;;;-0.15;84.36;100868.95;1843486;77;21400;-76
2020/12/15 05:57:46;;;;;;;109.15;52.33;;;;;;;-0.16;84.37;100868.55;1815132;78;22066;-75
2020/12/15 06:00:14;;;;;;;102.10;52.85;;;;;;;-0.15;84.37;100869.41;1818015;77;21207;-76
2020/12/15 06:02:42;;;;;;;68.92;39.38;;;;;;;-0.17;84.37;100867.30;1843046;77;21399;-74
2020/12/15 06:05:10;;;;;;;63.23;37.83;;;;;;;-0.18;84.37;100871.64;1835599;77;21144;-74
2020/12/15 06:07:41;;;;;;;69.50;42.08;;;;;;;-0.17;84.36;100874.64;1769304;80;21051;-73
2020/12/15 06:10:09;;;;;;;58.70;35.10;;;;;;;-0.15;84.40;100881.94;1716983;82;21917;-74
2020/12/15 06:12:37;;;;;;;52.10;29.23;;;;;;;-0.13;84.37;100882.73;1756547;79;21090;-74
2020/12/15 06:15:05;;;;;;;255.98;142.37;;;;;;;-0.08;84.40;100890.42;1773076;80;21112;-74
2020/12/15 06:17:33;;;;;;;135.52;72.50;;;;;;;-0.07;84.38;100893.42;1770873;80;21198;-74
2020/12/15 06:20:01;;;;;;;388.07;203.45;;;;;;;-0.07;84.36;100897.31;1766272;80;21052;-73
2020/12/15 06:22:31;;;;;;;170.00;85.00;;;;;;;-0.05;84.36;100905.45;1758128;80;22785;-74
2020/12/15 06:24:59;;;;;;;256.07;142.25;;;;;;;-0.06;84.35;100906.80;1700059;80;21087;-74
2020/12/15 06:27:33;;;;;;;95.70;51.20;;;;;;;-0.08;84.32;100908.15;1744586;82;21549;-74
2020/12/15 06:30:04;;;;;;;64.47;38.80;;;;;;;-0.07;84.34;100917.64;1761625;79;21063;-73
2020/12/15 06:32:32;;;;;;;63.92;36.28;;;;;;;-0.06;84.33;100918.48;1755114;80;21063;-74
2020/12/15 06:35:06;;;;;;;83.20;48.80;;;;;;;-0.07;84.32;100912.45;1787456;77;21621;-74
2020/12/15 06:37:35;;;;;;;56.15;31.73;;;;;;;-0.05;84.30;100920.19;1812611;79;21094;-75
2020/12/15 06:40:05;;;;;;;74.60;43.60;;;;;;;-0.05;84.30;100917.14;1782393;79;21616;-75
2020/12/15 06:42:35;;;;;;;50.35;29.92;;;;;;;-0.04;84.28;100923.19;1784237;80;21163;-77
2020/12/15 06:45:08;;;;;;;36.35;21.05;;;;;;;-0.05;84.29;100924.94;1718232;82;21114;-74
2020/12/15 06:47:36;;;;;;;32.63;19.37;;;;;;;-0.04;84.29;100925.78;1729250;82;22077;-74
2020/12/15 06:50:14;;;;;;;43.90;25.02;;;;;;;-0.06;84.29;100925.83;1760175;80;21136;-74
2020/12/15 06:52:42;;;;;;;41.20;24.87;;;;;;;-0.04;84.28;100925.78;1767981;79;21134;-75
2020/12/15 06:55:10;;;;;;;30.75;17.52;;;;;;;-0.03;84.30;100929.63;1771567;80;21080;-74
2020/12/15 06:57:39;;;;;;;39.38;23.27;;;;;;;-0.02;84.26;100925.29;1810047;79;21048;-75
2020/12/15 07:00:12;;;;;;;40.58;23.50;;;;;;;-0.02;84.25;100929.19;1816094;79;22057;-75
2020/12/15 07:02:41;;;;;;;39.18;22.62;;;;;;;-0.02;84.26;100926.59;1816099;79;21063;-74
2020/12/15 07:05:26;;;;;;;33.50;20.08;;;;;;;-0.03;84.23;100923.14;1783285;79;21059;-75
2020/12/15 07:07:56;;;;;;;41.37;24.15;;;;;;;-0.02;84.23;100920.95;1809832;79;21118;-75
2020/12/15 07:10:27;;;;;;;44.58;24.25;;;;;;;-0.03;84.25;100924.44;1809888;79;21102;-75
2020/12/15 07:12:59;;;;;;;46.10;24.80;;;;;;;-0.01;84.26;100929.14;1809855;79;22087;-74
2020/12/15 07:15:24;;;;;;;41.35;24.45;;;;;;;0.02;84.26;100928.22;1809664;79;21137;-74
2020/12/15 07:17:52;;;;;;;41.58;24.43;;;;;;;0.03;84.25;100923.44;1809880;78;21656;-77
2020/12/15 07:20:21;;;;;;;29.92;16.90;;;;;;;0.06;84.27;100926.39;1809823;79;21055;-73
2020/12/15 07:22:49;;;;;;;46.88;23.83;;;;;;;0.09;84.30;100927.14;1813510;77;21046;-80
2020/12/15 07:25:18;;;;;;;52.13;30.43;;;;;;;0.07;84.24;100934.58;1815917;79;22103;-76
2020/12/15 07:27:46;;;;;;;38.50;22.67;;;;;;;0.06;84.24;100939.38;1815839;79;21517;-78
2020/12/15 07:30:20;;;;;;;102.58;59.13;;;;;;;0.06;84.26;100938.92;1812216;79;21101;-77
2020/12/15 07:32:50;;;;;;;67.05;37.13;;;;;;;0.06;84.25;100936.77;1813065;77;21038;-77
2020/12/15 07:35:24;;;;;;;76.42;48.10;;;;;;;0.07;84.24;100935.88;1803053;77;21061;-78
2020/12/15 07:37:56;;;;;;;49.48;29.87;;;;;;;0.09;84.23;100939.28;1759131;79;22959;-76
2020/12/15 07:40:28;;;;;;;47.43;28.70;;;;;;;0.08;84.21;100942.33;1778286;79;21097;-72
2020/12/15 07:43:02;;;;;;;46.00;24.70;;;;;;;0.10;84.18;100934.52;1766472;80;21174;-73
2020/12/15 07:45:31;;;;;;;79.90;41.95;;;;;;;0.10;84.19;100943.16;1763381;81;21501;-72
2020/12/15 07:48:01;;;;;;;58.55;30.85;;;;;;;0.07;84.18;100943.67;1735535;81;21307;-72
2020/12/15 07:50:30;;;;;;;81.97;46.68;;;;;;;0.03;84.15;100945.95;1733037;82;22137;-71
2020/12/15 07:53:10;;;;;;;51.77;28.62;;;;;;;0.02;84.16;100948.16;1743322;82;21081;-72
2020/12/15 07:55:40;;;;;;;49.15;26.87;;;;;;;0.02;84.16;100954.64;1761422;79;21068;-74
2020/12/15 07:58:15;;;;;;;46.02;24.37;;;;;;;0.00;84.15;100957.29;1772998;79;21481;-79
2020/12/15 08:00:43;;;;;;;48.17;26.77;;;;;;;0.01;84.16;100956.84;1726484;82;21184;-76
2020/12/15 08:03:12;;;;;;;48.08;25.62;;;;;;;0.01;84.17;100956.84;1751871;82;21895;-78
2020/12/15 08:05:39;;;;;;;38.02;20.30;;;;;;;0.01;84.16;100956.84;1769999;80;21074;-76
2020/12/15 08:08:07;;;;;;;37.90;21.55;;;;;;;0.02;84.22;100961.98;1755470;80;21579;-81
2020/12/15 08:10:36;;;;;;;36.38;21.80;;;;;;;0.02;84.21;100961.14;1766986;80;21547;-74
2020/12/15 08:13:06;;;;;;;47.38;25.90;;;;;;;0.02;84.20;100961.98;1743279;82;21566;-76
2020/12/15 08:15:40;;;;;;;46.18;25.20;;;;;;;0.05;84.23;100959.75;1730222;82;23002;-74
2020/12/15 08:18:10;;;;;;;44.10;24.27;;;;;;;0.08;84.23;100963.10;1747455;82;21492;-74
2020/12/15 08:20:41;;;;;;;46.63;25.68;;;;;;;0.13;84.23;100963.00;1751811;82;21109;-73
2020/12/15 08:23:13;;;;;;;48.23;26.07;;;;;;;0.18;84.25;100958.51;1751852;82;21061;-74
2020/12/15 08:25:45;;;;;;;50.05;26.60;;;;;;;0.21;84.24;100959.30;1745709;82;21069;-76
2020/12/15 08:28:22;;;;;;;37.63;20.27;;;;;;;0.22;84.21;100957.10;1726685;82;21904;-75
2020/12/15 08:30:57;;;;;;;45.43;25.23;;;;;;;0.24;84.22;100963.10;1697460;83;21081;-75
2020/12/15 08:33:28;;;;;;;44.23;25.20;;;;;;;0.25;84.19;100953.56;1721937;83;21132;-76
2020/12/15 08:35:57;;;;;;;159.90;77.87;;;;;;;0.27;84.19;100959.11;1725397;81;21116;-75
2020/12/15 08:38:26;;;;;;;102.27;52.85;;;;;;;0.32;84.18;100960.75;1752718;80;21544;-65
2020/12/15 08:40:59;;;;;;;65.05;37.25;;;;;;;0.35;84.17;100964.55;1766573;80;22102;-65
2020/12/15 08:43:27;;;;;;;69.12;37.73;;;;;;;0.40;84.20;100960.94;1768689;80;21153;-65
2020/12/15 08:45:57;;;;;;;56.00;30.70;;;;;;;0.43;84.19;100963.45;1761405;80;21543;-72
2020/12/15 08:48:25;;;;;;;45.85;25.08;;;;;;;0.45;84.16;100964.70;1765522;80;21108;-68
2020/12/15 08:50:53;;;;;;;148.68;78.47;;;;;;;0.53;84.18;100960.13;1674197;84;21174;-68
2020/12/15 08:53:21;;;;;;;149.80;83.52;;;;;;;0.60;84.18;100961.67;1716665;83;23088;-72
2020/12/15 08:55:49;;;;;;;145.35;81.78;;;;;;;0.62;84.12;100962.92;1723549;83;21078;-71
2020/12/15 08:58:18;;;;;;;52.60;28.52;;;;;;;0.65;84.08;100961.07;1723670;83;21173;-69
2020/12/15 09:00:46;;;;;;;75.47;42.08;;;;;;;0.70;84.09;100956.60;1723674;83;21138;-69
2020/12/15 09:03:16;;;;;;;82.85;50.38;;;;;;;0.70;84.01;100962.25;1734918;81;21124;-69
2020/12/15 09:05:55;;;;;;;55.10;32.83;;;;;;;0.71;83.98;100963.95;1755867;81;21890;-69
2020/12/15 09:08:25;;;;;;;49.93;28.98;;;;;;;0.74;83.97;100964.70;1755771;81;21202;-69
2020/12/15 09:10:57;;;;;;;45.90;26.57;;;;;;;0.80;83.98;100963.69;1755900;81;21155;-69
2020/12/15 09:13:24;;;;;;;43.15;25.68;;;;;;;0.90;84.01;100965.56;1755815;81;21127;-70
2020/12/15 09:15:56;;;;;;;46.50;26.33;;;;;;;0.95;83.97;100967.11;1755919;81;21485;-70
2020/12/15 09:18:37;;;;;;;40.38;23.10;;;;;;;0.96;83.94;100961.00;1755912;81;23054;-70
2020/12/15 09:21:11;;;;;;;40.88;23.83;;;;;;;1.00;83.89;100961.78;1754660;81;21151;-70
2020/12/15 09:23:49;;;;;;;39.33;24.10;;;;;;;1.04;83.83;100959.47;1755824;81;21084;-69
2020/12/15 09:26:17;;;;;;;40.55;23.27;;;;;;;1.06;83.76;100955.95;1755831;81;21131;-70
2020/12/15 09:28:45;;;;;;;41.40;24.87;;;;;;;1.11;83.72;100957.09;1755821;81;21103;-69
2020/12/15 09:31:14;;;;;;;38.28;22.48;;;;;;;1.11;83.63;100950.14;1755787;81;22091;-72
2020/12/15 09:33:42;;;;;;;40.70;24.00;;;;;;;1.13;83.59;100952.69;1755872;81;21503;-68
2020/12/15 09:36:16;;;;;;;37.17;23.40;;;;;;;1.10;83.54;100946.29;1755779;81;21085;-69
2020/12/15 09:38:46;;;;;;;42.58;24.50;;;;;;;1.15;83.51;100942.63;1695816;84;21192;-70
2020/12/15 09:41:13;;;;;;;41.55;22.98;;;;;;;1.19;83.46;100939.95;1727651;82;21163;-70
2020/12/15 09:43:41;;;;;;;39.42;23.65;;;;;;;1.20;83.40;100932.55;1809674;79;22065;-72
2020/12/15 09:46:08;;;;;;;40.67;24.15;;;;;;;1.19;83.33;100938.65;1780844;79;21489;-73
2020/12/15 09:48:36;;;;;;;37.88;23.80;;;;;;;1.16;83.29;100927.90;1809709;79;21094;-70
2020/12/15 09:51:04;;;;;;;35.40;21.62;;;;;;;1.17;83.23;100936.10;1809677;79;21429;-71
2020/12/15 09:53:32;;;;;;;39.60;22.98;;;;;;;1.16;83.20;100934.41;1809825;79;21059;-69
2020/12/15 09:56:00;;;;;;;39.33;23.42;;;;;;;1.13;83.11;100929.27;1805250;79;22032;-69
2020/12/15 09:58:30;;;;;;;44.73;25.77;;;;;;;1.09;83.07;100932.44;1794058;79;21085;-69
2020/12/15 10:01:00;;;;;;;39.58;24.35;;;;;;;1.09;83.04;100937.63;1790153;80;21322;-69
2020/12/15 10:03:28;;;;;;;44.00;26.77;;;;;;;1.09;83.03;100944.14;1794682;80;21101;-69
2020/12/15 10:05:56;;;;;;;44.55;27.10;;;;;;;1.09;83.00;100935.48;1794699;78;21129;-69
2020/12/15 10:08:24;;;;;;;43.87;25.32;;;;;;;1.11;82.98;100942.34;1794690;80;21856;-68
2020/12/15 10:10:52;;;;;;;31.15;19.85;;;;;;;1.14;82.98;100937.48;1799033;79;21062;-69
2020/12/15 10:13:20;;;;;;;32.67;19.90;;;;;;;1.13;82.96;100935.78;1774470;80;21056;-69
2020/12/15 10:15:48;;;;;;;42.43;26.02;;;;;;;1.12;82.95;100939.28;1742457;82;21066;-69
2020/12/15 10:18:16;;;;;;;42.43;25.20;;;;;;;1.13;82.94;100933.17;1774482;80;21107;-69
2020/12/15 10:20:44;;;;;;;40.85;23.73;;;;;;;1.12;82.94;100936.23;1774445;80;22075;-69
2020/12/15 10:23:11;;;;;;;40.52;23.75;;;;;;;1.14;82.94;100935.72;1774349;80;21072;-69
2020/12/15 10:25:41;;;;;;;35.78;21.12;;;;;;;1.18;82.90;100934.34;1774551;80;21088;-69
2020/12/15 10:28:10;;;;;;;40.48;23.87;;;;;;;1.21;82.83;100927.73;1775674;79;21511;-69
2020/12/15 10:30:38;;;;;;;36.77;22.87;;;;;;;1.21;82.80;100927.73;1774646;80;21064;-69
2020/12/15 10:33:07;;;;;;;37.23;23.40;;;;;;;1.23;82.79;100933.73;1774614;80;22075;-69
2020/12/15 10:35:34;;;;;;;39.90;25.20;;;;;;;1.23;82.77;100933.73;1774543;80;21162;-69
2020/12/15 10:38:02;;;;;;;34.63;21.80;;;;;;;1.25;82.75;100934.53;1774579;80;21123;-69
2020/12/15 10:40:30;;;;;;;40.63;24.43;;;;;;;1.24;82.74;100929.78;1774407;80;21083;-69
2020/12/15 10:42:58;;;;;;;35.60;22.25;;;;;;;1.28;82.74;100939.20;1774649;80;21051;-69
2020/12/15 10:45:26;;;;;;;32.03;20.30;;;;;;;1.33;82.75;100942.50;1775685;79;22122;-69
2020/12/15 10:47:54;;;;;;;36.33;22.27;;;;;;;1.33;82.72;100942.50;1774561;80;21139;-70
2020/12/15 10:50:21;;;;;;;31.93;21.20;;;;;;;1.28;82.64;100943.56;1774580;80;21052;-69
2020/12/15 10:52:49;;;;;;;39.63;23.27;;;;;;;1.29;82.62;100941.36;1774591;80;21060;-69
2020/12/15 10:55:16;;;;;;;35.52;23.15;;;;;;;1.28;82.60;100946.16;1774630;80;21427;-69
2020/12/15 10:57:44;;;;;;;36.83;23.83;;;;;;;1.29;82.60;100939.61;1774680;80;22984;-69
2020/12/15 11:00:12;;;;;;;36.75;22.95;;;;;;;1.27;82.55;100941.86;1774530;80;21101;-69
2020/12/15 11:02:39;;;;;;;38.02;23.98;;;;;;;1.26;82.54;100936.26;1775585;79;21364;-76
2020/12/15 11:05:07;;;;;;;39.30;26.27;;;;;;;1.25;82.51;100940.58;1774646;80;21443;-70
2020/12/15 11:07:34;;;;;;;42.13;24.15;;;;;;;1.20;82.42;100941.65;1774608;80;21623;-70
2020/12/15 11:10:03;;;;;;;28.92;18.77;;;;;;;1.12;82.35;100935.37;1774641;80;22124;-69
2020/12/15 11:12:30;;;;;;;41.05;24.30;;;;;;;1.09;82.34;100932.44;1774505;80;21076;-69
2020/12/15 11:14:58;;;;;;;32.75;20.25;;;;;;;1.06;82.30;100932.54;1774585;80;21060;-68
2020/12/15 11:17:26;;;;;;;39.42;23.27;;;;;;;1.04;82.30;100935.61;1774532;80;21148;-68
2020/12/15 11:19:55;;;;;;;28.17;18.23;;;;;;;1.07;82.32;100935.54;1775619;79;21076;-67
2020/12/15 11:22:23;;;;;;;35.13;23.10;;;;;;;1.10;82.30;100930.23;1774598;80;22058;-67
2020/12/15 11:24:50;;;;;;;33.70;22.00;;;;;;;1.08;82.29;100935.94;1774508;80;22522;-68
2020/12/15 11:27:19;;;;;;;37.98;23.57;;;;;;;1.07;82.29;100939.44;1746729;80;21067;-68